map of PQM home
PQM - Airport
Location
City:  Palenque, Chiapas, México
Name:Palenque International Airport
ICAO:MMPQ
IATA:PQM

Details
Type:Airport (Aerodrome, Airfield)
Use:International (customs port of entry)
Latitude:17°32'00"N (17.533431)
Longitude:91°59'04"W (-91.984516)
Datum:WGS 1984
Elevation:200 ft (61 m)
Variation:1.31°E (WMM2015v2 magnetic declination)
-0.11° annual change
Runways:1
Longest:4888 × 82 ft (1490 × 25 m), paved

Time
Time Zone:UTC-6 (DST-5)
Local Time:

Weather
METAR:MMPQ 041343Z 00000KT 6SM SKC 20/19 A2980 RMK HZY

Related Locations
Nearby:
Farthest:CCK: 11749 mi / 18908 km
West Island (Pulau Panjang) [Cocos (Keeling) Islands], CC

Find:

   beyond  
but within

Other Information
Maps:
NOTAMs:
Links:
Sources:

  
  • flag of México
  • flag of Chiapas
  

Sectional Chart

Flight Planning
at skyvector.com

Satellite Image

Google Maps Satellite view

 

Copyright © 2004-2019 Karl L. Swartz. All rights reserved.
The Great Circle Mapper name and logo are trademarks of the Great Circle Mapper.
All other trademarks mentioned herein belong to their respective owners.
Please see credits for attibutions and further copyright information.

  Follow gcmap on Facebook Follow gcmap on Twitter GCmap on LinkedIn

hCard Microformat

Geo Microformat